Time;durP1;ratioP1;P1;durP2;ratioP2;P2;SDS_P1;SDS_P2;PMS_P1;PMS_P2;Temp;Humidity;BMP_temperature;BMP_pressure;BME280_temperature;BME280_humidity;BME280_pressure;Samples;Min_cycle;Max_cycle;Signal;HPM_P1;HPM_P2
2021/12/10 00:00:44;;;;;;;;;;;;;;;1.01;89.55;96915.45;1662960;84;24839;-85
2021/12/10 00:03:12;;;;;;;;;;;;;;;0.97;89.50;96907.53;1653791;84;22009;-86
2021/12/10 00:05:41;;;;;;;;;;;;;;;0.97;89.48;96907.98;1651824;85;26051;-86
2021/12/10 00:08:13;;;;;;;;;;;;;;;0.95;89.44;96915.79;1666421;85;24570;-86
2021/12/10 00:10:45;;;;;;;;;;;;;;;0.93;89.39;96917.61;1658851;84;20269;-87
2021/12/10 00:13:10;;;;;;;;;;;;;;;0.89;89.35;96914.00;1654811;84;25047;-86
2021/12/10 00:15:37;;;;;;;;;;;;;;;0.86;89.33;96904.72;1637738;85;22013;-86
2021/12/10 00:18:05;;;;;;;;;;;;;;;0.79;89.28;96885.38;1657410;84;26036;-86
2021/12/10 00:20:38;;;;;;;;;;;;;;;0.74;89.23;96877.08;1663011;84;24431;-86
2021/12/10 00:23:06;;;;;;;;;;;;;;;0.72;89.20;96862.99;1699670;83;20707;-84
2021/12/10 00:25:36;;;;;;;;;;;;;;;0.70;89.17;96864.84;1644645;86;25121;-84
2021/12/10 00:28:12;;;;;;;;;;;;;;;0.70;89.13;96855.83;1621747;87;21932;-84
2021/12/10 00:30:34;;;;;;;;;;;;;;;0.74;89.13;96859.05;1611713;86;27195;-84
2021/12/10 00:33:09;;;;;;;;;;;;;;;0.73;89.13;96872.38;1641055;86;24884;-84
2021/12/10 00:35:32;;;;;;;;;;;;;;;0.76;89.17;96868.34;1620445;87;20194;-84
2021/12/10 00:37:59;;;;;;;;;;;;;;;0.81;89.21;96862.95;1618713;88;24964;-85
2021/12/10 00:40:26;;;;;;;;;;;;;;;0.82;89.23;96871.02;1630612;87;22157;-85
2021/12/10 00:42:54;;;;;;;;;;;;;;;0.79;89.28;96868.18;1628650;86;26689;-85
2021/12/10 00:45:22;;;;;;;;;;;;;;;0.82;89.29;96866.70;1653625;85;24666;-84
2021/12/10 00:47:48;;;;;;;;;;;;;;;0.77;89.29;96871.74;1638939;86;20251;-85
2021/12/10 00:50:16;;;;;;;;;;;;;;;0.82;89.27;96863.30;1619138;87;25030;-84
2021/12/10 00:52:43;;;;;;;;;;;;;;;0.83;89.26;96853.37;1657302;85;22613;-85
2021/12/10 00:55:10;;;;;;;;;;;;;;;0.88;89.24;96851.38;1662196;84;26066;-85
2021/12/10 00:57:36;;;;;;;;;;;;;;;0.89;89.23;96852.20;1664001;85;25303;-84
2021/12/10 01:00:04;;;;;;;;;;;;;;;0.92;89.21;96863.18;1687372;83;20389;-85
2021/12/10 01:02:30;;;;;;;;;;;;;;;0.90;89.18;96870.15;1700656;83;25175;-84
2021/12/10 01:04:57;;;;;;;;;;;;;;;0.88;89.17;96864.25;1696441;83;22130;-85
2021/12/10 01:07:25;;;;;;;;;;;;;;;0.81;89.13;96854.78;1699504;83;26595;-84
2021/12/10 01:09:58;;;;;;;;;;;;;;;0.73;89.07;96865.95;1698567;82;24482;-84
2021/12/10 01:12:23;;;;;;;;;;;;;;;0.65;89.01;96868.59;1662904;85;20553;-84
2021/12/10 01:15:47;;;;;;;;;;;;;;;0.59;88.94;96874.06;1659692;85;21061;-85
2021/12/10 01:28:23;;;;;;;;;;;;;;;0.70;88.85;96866.59;1571908;89;25818;-85
2021/12/10 01:30:49;;;;;;;;;;;;;;;0.69;88.83;96859.77;1645831;85;21984;-85
2021/12/10 01:33:18;;;;;;;;;;;;;;;0.70;88.85;96860.15;1648503;85;26800;-85
2021/12/10 01:35:53;;;;;;;;;;;;;;;0.73;88.88;96868.97;1662207;85;24454;-85
2021/12/10 01:38:24;;;;;;;;;;;;;;;0.69;88.90;96876.05;1621243;87;20245;-86
2021/12/10 01:40:53;;;;;;;;;;;;;;;0.66;88.88;96869.77;1700027;82;25067;-86
2021/12/10 01:43:22;;;;;;;;;;;;;;;0.66;88.89;96865.91;1702222;82;21975;-87
2021/12/10 01:45:50;;;;;;;;;;;;;;;0.67;88.88;96860.30;1700148;83;25521;-86
2021/12/10 01:48:18;;;;;;;;;;;;;;;0.65;88.89;96846.70;1704238;83;25167;-86
2021/12/10 01:50:45;;;;;;;;;;;;;;;0.63;88.88;96848.52;1699849;83;20162;-86
2021/12/10 01:53:14;;;;;;;;;;;;;;;0.64;88.81;96865.63;1695208;83;25785;-86
2021/12/10 01:55:42;;;;;;;;;;;;;;;0.61;88.82;96850.34;1702243;83;22726;-86
2021/12/10 01:58:16;;;;;;;;;;;;;;;0.61;88.85;96850.34;1702713;83;26290;-86
2021/12/10 02:00:44;;;;;;;;;;;;;;;0.62;88.85;96854.13;1700995;83;24451;-86
2021/12/10 02:03:11;;;;;;;;;;;;;;;0.63;88.88;96842.09;1697563;82;20257;-85
2021/12/10 02:05:38;;;;;;;;;;;;;;;0.66;88.88;96836.75;1696908;83;25670;-85
2021/12/10 02:08:04;;;;;;;;;;;;;;;0.67;88.89;96853.86;1689562;83;21986;-87
2021/12/10 02:10:31;;;;;;;;;;;;;;;0.70;88.92;96865.30;1701864;82;26160;-87
2021/12/10 02:12:58;;;;;;;;;;;;;;;0.68;88.91;96846.06;1705016;83;24564;-86
2021/12/10 02:15:27;;;;;;;;;;;;;;;0.66;88.89;96844.02;1698675;83;21124;-86
2021/12/10 02:17:56;;;;;;;;;;;;;;;0.64;88.89;96863.06;1693390;83;25062;-86
2021/12/10 02:20:32;;;;;;;;;;;;;;;0.64;88.90;96848.45;1700164;83;22018;-86
2021/12/10 02:22:58;;;;;;;;;;;;;;;0.65;88.92;96833.38;1700781;82;26008;-86
2021/12/10 02:25:26;;;;;;;;;;;;;;;0.63;88.92;96818.92;1705801;83;24472;-87
2021/12/10 02:27:54;;;;;;;;;;;;;;;0.61;88.89;96816.42;1701182;82;20202;-87
2021/12/10 02:30:21;;;;;;;;;;;;;;;0.59;88.88;96830.31;1702676;83;25054;-85
2021/12/10 02:32:47;;;;;;;;;;;;;;;0.53;88.88;96849.50;1701089;82;22035;-85
2021/12/10 02:35:20;;;;;;;;;;;;;;;0.52;88.86;96836.70;1691806;83;26840;-86
2021/12/10 02:37:50;;;;;;;;;;;;;;;0.58;88.91;96824.79;1694326;83;24573;-85
2021/12/10 02:40:18;;;;;;;;;;;;;;;0.59;88.93;96823.88;1705311;83;20209;-86
2021/12/10 02:42:46;;;;;;;;;;;;;;;0.58;88.94;96820.92;1703290;83;25016;-86
2021/12/10 02:45:15;;;;;;;;;;;;;;;0.57;88.94;96820.09;1702844;82;22776;-87
2021/12/10 02:47:41;;;;;;;;;;;;;;;0.54;88.93;96815.13;1700762;82;26211;-86
2021/12/10 02:50:09;;;;;;;;;;;;;;;0.55;88.93;96813.36;1704673;83;24463;-87
2021/12/10 02:52:36;;;;;;;;;;;;;;;0.51;88.92;96808.85;1697839;82;20229;-86
2021/12/10 02:55:05;;;;;;;;;;;;;;;0.51;88.93;96817.03;1704341;82;25121;-87
2021/12/10 02:57:31;;;;;;;;;;;;;;;0.51;88.94;96817.03;1704931;82;22573;-89
2021/12/10 03:00:07;;;;;;;;;;;;;;;0.51;88.98;96806.28;1702447;83;26249;-88
2021/12/10 03:02:33;;;;;;;;;;;;;;;0.54;89.00;96801.44;1703962;83;24558;-87
2021/12/10 03:04:59;;;;;;;;;;;;;;;0.54;89.00;96809.98;1643243;86;20253;-87
2021/12/10 03:07:30;;;;;;;;;;;;;;;0.56;89.03;96808.14;1637633;87;25795;-87
2021/12/10 03:09:56;;;;;;;;;;;;;;;0.56;89.10;96801.70;1653441;85;22021;-87
2021/12/10 03:12:22;;;;;;;;;;;;;;;0.60;89.12;96789.52;1653078;85;26074;-88
2021/12/10 03:14:50;;;;;;;;;;;;;;;0.61;89.15;96787.28;1639068;87;24444;-88
2021/12/10 03:17:18;;;;;;;;;;;;;;;0.61;89.17;96783.42;1642927;86;20166;-88
2021/12/10 03:19:45;;;;;;;;;;;;;;;0.61;89.16;96796.29;1638112;86;25034;-87
2021/12/10 03:22:12;;;;;;;;;;;;;;;0.59;89.17;96798.14;1652825;85;20152;-86
2021/12/10 03:24:39;;;;;;;;;;;;;;;0.56;89.17;96786.72;1701939;83;26124;-87
2021/12/10 03:27:14;;;;;;;;;;;;;;;0.59;89.18;96778.84;1693417;83;24485;-87
2021/12/10 03:29:41;;;;;;;;;;;;;;;0.54;89.15;96782.97;1701075;83;20489;-87
2021/12/10 03:32:09;;;;;;;;;;;;;;;0.49;89.13;96779.83;1703204;83;24809;-87
2021/12/10 03:34:36;;;;;;;;;;;;;;;0.45;89.11;96774.45;1703188;83;22621;-87
2021/12/10 03:37:03;;;;;;;;;;;;;;;0.40;89.08;96779.03;1699927;83;26151;-87
2021/12/10 03:39:29;;;;;;;;;;;;;;;0.33;89.05;96769.98;1703282;82;24517;-86
2021/12/10 03:41:57;;;;;;;;;;;;;;;0.28;89.05;96777.97;1688250;83;20485;-86
2021/12/10 03:44:27;;;;;;;;;;;;;;;0.29;89.03;96779.63;1700463;83;25848;-86
2021/12/10 03:46:56;;;;;;;;;;;;;;;0.29;89.04;96780.92;1699937;82;20166;-86
2021/12/10 03:49:22;;;;;;;;;;;;;;;0.32;89.01;96780.77;1701492;83;26089;-87
2021/12/10 03:51:54;;;;;;;;;;;;;;;0.34;89.00;96780.20;1692969;82;25503;-88
2021/12/10 03:54:22;;;;;;;;;;;;;;;0.34;88.97;96780.66;1699684;82;20496;-88
2021/12/10 03:56:48;;;;;;;;;;;;;;;0.35;88.96;96779.75;1696156;83;25054;-86
2021/12/10 03:59:15;;;;;;;;;;;;;;;0.35;88.96;96790.03;1696902;82;22114;-87
2021/12/10 04:01:44;;;;;;;;;;;;;;;0.31;88.94;96794.53;1688553;83;26053;-87
2021/12/10 04:04:14;;;;;;;;;;;;;;;0.28;88.93;96806.27;1703909;83;24576;-87
2021/12/10 04:06:44;;;;;;;;;;;;;;;0.26;88.97;96805.54;1697660;83;20170;-87
2021/12/10 04:09:10;;;;;;;;;;;;;;;0.23;88.94;96806.97;1695988;83;25231;-87
2021/12/10 04:11:40;;;;;;;;;;;;;;;0.25;88.96;96813.33;1699038;83;22032;-87
2021/12/10 04:14:06;;;;;;;;;;;;;;;0.27;88.96;96809.74;1693405;83;26066;-87
2021/12/10 04:16:37;;;;;;;;;;;;;;;0.23;88.94;96814.69;1693765;83;25074;-87
2021/12/10 04:19:09;;;;;;;;;;;;;;;0.16;88.92;96818.53;1700820;83;20298;-87
2021/12/10 04:21:39;;;;;;;;;;;;;;;0.15;88.90;96824.58;1686005;82;24985;-88
2021/12/10 04:24:12;;;;;;;;;;;;;;;0.17;88.89;96824.48;1698459;82;21483;-87
2021/12/10 04:26:39;;;;;;;;;;;;;;;0.25;88.90;96822.33;1700545;83;27045;-87
2021/12/10 04:29:13;;;;;;;;;;;;;;;0.25;88.89;96820.59;1693046;83;24457;-87
2021/12/10 04:31:37;;;;;;;;;;;;;;;0.25;88.88;96819.77;1700576;83;20238;-87
2021/12/10 04:34:04;;;;;;;;;;;;;;;0.27;88.87;96829.52;1694672;83;24982;-87
2021/12/10 04:36:30;;;;;;;;;;;;;;;0.29;88.83;96839.25;1704133;83;21973;-87
2021/12/10 04:38:56;;;;;;;;;;;;;;;0.24;88.81;96831.79;1699544;83;26228;-87
2021/12/10 04:41:24;;;;;;;;;;;;;;;0.23;88.78;96837.84;1696956;83;24536;-87
2021/12/10 04:43:50;;;;;;;;;;;;;;;0.27;88.77;96830.81;1698221;83;20214;-87
2021/12/10 04:46:16;;;;;;;;;;;;;;;0.24;88.76;96827.93;1701047;83;25052;-87
2021/12/10 04:48:44;;;;;;;;;;;;;;;0.25;88.75;96826.19;1701791;83;22043;-87
2021/12/10 04:51:11;;;;;;;;;;;;;;;0.26;88.77;96823.55;1693775;82;26012;-87
2021/12/10 04:53:37;;;;;;;;;;;;;;;0.23;88.77;96824.98;1703428;83;24423;-87
2021/12/10 04:56:03;;;;;;;;;;;;;;;0.19;88.74;96823.50;1701406;83;20299;-88
2021/12/10 04:58:30;;;;;;;;;;;;;;;0.20;88.72;96824.33;1694769;83;25055;-88
2021/12/10 05:01:02;;;;;;;;;;;;;;;0.16;88.71;96831.84;1692194;83;22046;-87
2021/12/10 05:03:24;;;;;;;;;;;;;;;0.15;88.70;96833.59;1690834;82;25994;-86
2021/12/10 05:05:50;;;;;;;;;;;;;;;0.16;88.67;96834.42;1720394;82;25068;-87
2021/12/10 05:08:18;;;;;;;;;;;;;;;0.15;88.67;96831.47;1672748;83;20173;-87
2021/12/10 05:10:45;;;;;;;;;;;;;;;0.15;88.64;96832.30;1687401;82;25020;-87
2021/12/10 05:13:17;;;;;;;;;;;;;;;0.14;88.63;96834.49;1697847;83;22827;-87
2021/12/10 05:15:44;;;;;;;;;;;;;;;0.12;88.59;96827.30;1697033;83;26043;-87
2021/12/10 05:18:13;;;;;;;;;;;;;;;0.09;88.56;96831.34;1699044;83;25458;-87
2021/12/10 05:20:41;;;;;;;;;;;;;;;0.09;88.56;96832.63;1703337;82;20193;-86
2021/12/10 05:23:07;;;;;;;;;;;;;;;0.07;88.53;96830.58;1701430;83;24975;-86
2021/12/10 05:25:33;;;;;;;;;;;;;;;0.03;88.53;96835.98;1702098;83;22090;-86
2021/12/10 05:28:01;;;;;;;;;;;;;;;-0.01;88.51;96827.16;1697819;83;26049;-87
2021/12/10 05:30:29;;;;;;;;;;;;;;;0.05;88.51;96826.00;1688961;82;24502;-86
2021/12/10 05:32:56;;;;;;;;;;;;;;;0.05;88.50;96829.02;1693505;82;20525;-87
2021/12/10 05:35:22;;;;;;;;;;;;;;;0.07;88.49;96827.17;1694484;83;24926;-87
2021/12/10 05:37:50;;;;;;;;;;;;;;;0.08;88.52;96823.25;1702869;82;22041;-88
2021/12/10 05:40:19;;;;;;;;;;;;;;;0.09;88.54;96819.77;1690603;83;21650;-88
2021/12/10 05:42:46;;;;;;;;;;;;;;;0.11;88.57;96817.92;1694595;83;24568;-87
2021/12/10 05:45:13;;;;;;;;;;;;;;;0.13;88.59;96815.28;1710350;83;20217;-87
2021/12/10 05:47:39;;;;;;;;;;;;;;;0.14;88.63;96819.06;1694827;83;25026;-88
2021/12/10 05:50:06;;;;;;;;;;;;;;;0.12;88.64;96810.59;1693807;83;21234;-87
2021/12/10 05:52:32;;;;;;;;;;;;;;;0.11;88.67;96810.20;1703868;83;26230;-87
2021/12/10 05:54:58;;;;;;;;;;;;;;;0.12;88.67;96811.04;1704510;82;24086;-87
2021/12/10 05:57:26;;;;;;;;;;;;;;;0.14;88.69;96815.66;1698030;82;20596;-87
2021/12/10 05:59:52;;;;;;;;;;;;;;;0.14;88.71;96813.91;1717310;82;25348;-87
2021/12/10 06:02:18;;;;;;;;;;;;;;;0.15;88.69;96814.30;1704468;83;22674;-87
2021/12/10 06:04:44;;;;;;;;;;;;;;;0.10;88.68;96811.59;1702504;83;26839;-87
2021/12/10 06:07:10;;;;;;;;;;;;;;;-0.01;88.65;96814.75;1701352;82;25246;-86
2021/12/10 06:09:36;;;;;;;;;;;;;;;-0.13;88.61;96807.23;1692467;83;20329;-86
2021/12/10 06:12:03;;;;;;;;;;;;;;;-0.21;88.58;96808.08;1703750;83;25058;-86
2021/12/10 06:14:30;;;;;;;;;;;;;;;-0.22;88.55;96804.33;1695115;83;22166;-86
2021/12/10 06:16:56;;;;;;;;;;;;;;;-0.19;88.54;96804.16;1692532;83;26054;-86
2021/12/10 06:19:23;;;;;;;;;;;;;;;-0.11;88.55;96809.73;1702728;83;24434;-86
2021/12/10 06:21:49;;;;;;;;;;;;;;;-0.06;88.54;96805.17;1704418;82;20153;-86
2021/12/10 06:24:18;;;;;;;;;;;;;;;-0.01;88.55;96801.89;1708019;83;24914;-86
2021/12/10 06:26:44;;;;;;;;;;;;;;;-0.01;88.54;96801.89;1694228;82;21968;-86
2021/12/10 06:29:12;;;;;;;;;;;;;;;-0.04;88.49;96805.45;1696548;83;26037;-87
2021/12/10 06:31:38;;;;;;;;;;;;;;;-0.03;88.47;96804.99;1703514;82;24538;-87
2021/12/10 06:34:06;;;;;;;;;;;;;;;-0.07;88.42;96806.08;1699307;83;20461;-87
2021/12/10 06:36:35;;;;;;;;;;;;;;;-0.05;88.39;96820.95;1704106;82;25034;-87
2021/12/10 06:39:04;;;;;;;;;;;;;;;-0.07;88.35;96821.50;1695460;82;22247;-88
2021/12/10 06:41:30;;;;;;;;;;;;;;;-0.09;88.31;96824.15;1707318;83;26068;-87
2021/12/10 06:43:56;;;;;;;;;;;;;;;-0.09;88.26;96821.58;1697765;82;24445;-87
2021/12/10 06:46:27;;;;;;;;;;;;;;;-0.06;88.28;96829.14;1699368;83;20193;-87
2021/12/10 06:48:53;;;;;;;;;;;;;;;-0.14;88.23;96829.16;1673149;84;25650;-87
2021/12/10 06:51:20;;;;;;;;;;;;;;;-0.21;88.17;96836.81;1695765;83;22003;-87
2021/12/10 06:53:47;;;;;;;;;;;;;;;-0.23;88.15;96839.48;1704470;82;26030;-88
2021/12/10 06:56:14;;;;;;;;;;;;;;;-0.26;88.11;96833.20;1698895;83;24583;-87
2021/12/10 06:58:43;;;;;;;;;;;;;;;-0.28;88.05;96840.63;1704108;83;20299;-87
2021/12/10 07:01:18;;;;;;;;;;;;;;;-0.33;88.03;96842.62;1706287;83;20554;-87
2021/12/10 07:03:45;;;;;;;;;;;;;;;-0.36;87.98;96832.03;1698955;82;22869;-86
2021/12/10 07:06:12;;;;;;;;;;;;;;;-0.37;87.98;96832.93;1699880;83;25973;-87
2021/12/10 07:08:39;;;;;;;;;;;;;;;-0.42;87.96;96837.03;1692360;84;24671;-87
2021/12/10 07:11:07;;;;;;;;;;;;;;;-0.42;87.95;96849.05;1702517;83;20495;-86
2021/12/10 07:13:35;;;;;;;;;;;;;;;-0.46;87.96;96855.26;1693902;83;20522;-87
2021/12/10 07:16:02;;;;;;;;;;;;;;;-0.49;87.96;96851.55;1689870;83;22038;-86
2021/12/10 07:18:29;;;;;;;;;;;;;;;-0.47;87.97;96848.00;1697133;83;26734;-87
2021/12/10 07:20:55;;;;;;;;;;;;;;;-0.44;88.00;96849.11;1702810;83;24501;-86
2021/12/10 07:23:22;;;;;;;;;;;;;;;-0.38;88.04;96847.97;1690090;82;20348;-86
2021/12/10 07:25:49;;;;;;;;;;;;;;;-0.36;88.04;96850.02;1703790;83;25826;-87
2021/12/10 07:28:15;;;;;;;;;;;;;;;-0.29;88.11;96850.53;1705103;83;21996;-87
2021/12/10 07:30:42;;;;;;;;;;;;;;;-0.24;88.15;96851.13;1694610;83;26022;-86
2021/12/10 07:33:08;;;;;;;;;;;;;;;-0.20;88.18;96852.61;1685664;83;24431;-86
2021/12/10 07:35:35;;;;;;;;;;;;;;;-0.13;88.24;96859.94;1690517;83;20271;-87
2021/12/10 07:38:01;;;;;;;;;;;;;;;-0.09;88.29;96854.17;1698780;83;25059;-87
2021/12/10 07:40:31;;;;;;;;;;;;;;;-0.02;88.37;96844.77;1682839;82;20169;-86
2021/12/10 07:42:57;;;;;;;;;;;;;;;0.07;88.45;96847.30;1692895;83;25972;-86
2021/12/10 07:45:28;;;;;;;;;;;;;;;0.15;88.54;96848.19;1705415;83;24556;-86
2021/12/10 07:47:56;;;;;;;;;;;;;;;0.20;88.60;96852.17;1698720;83;20517;-87
2021/12/10 07:50:24;;;;;;;;;;;;;;;0.28;88.68;96850.00;1654202;85;25742;-86
2021/12/10 07:52:54;;;;;;;;;;;;;;;0.35;88.75;96851.78;1637116;86;22784;-86
2021/12/10 07:55:18;;;;;;;;;;;;;;;0.40;88.83;96849.79;1626040;87;26021;-86
2021/12/10 07:57:45;;;;;;;;;;;;;;;0.45;88.90;96854.22;1701087;83;24526;-86
2021/12/10 08:00:13;;;;;;;;;;;;;;;0.49;88.96;96853.62;1694574;83;20565;-86
2021/12/10 08:02:40;;;;;;;;;;;;;;;0.56;89.02;96851.89;1706171;83;25051;-86
2021/12/10 08:05:07;;;;;;;;;;;;;;;0.61;89.08;96851.63;1688146;82;21957;-86
2021/12/10 08:07:36;;;;;;;;;;;;;;;0.65;89.11;96845.42;1692039;82;26918;-86
2021/12/10 08:10:09;;;;;;;;;;;;;;;0.69;89.15;96852.88;1721710;82;25131;-86
2021/12/10 08:12:32;;;;;;;;;;;;;;;0.71;89.22;96850.23;1706752;82;20285;-86
2021/12/10 08:14:58;;;;;;;;;;;;;;;0.76;89.28;96850.80;1700452;82;25946;-86
2021/12/10 08:17:24;;;;;;;;;;;;;;;0.79;89.28;96854.02;1699658;83;20236;-86
2021/12/10 08:19:51;;;;;;;;;;;;;;;0.83;89.35;96855.50;1708703;82;20992;-86
2021/12/10 08:22:19;;;;;;;;;;;;;;;0.89;89.40;96852.20;1700984;83;24619;-86
2021/12/10 08:24:45;;;;;;;;;;;;;;;0.95;89.44;96859.13;1703329;83;20325;-86
2021/12/10 08:27:12;;;;;;;;;;;;;;;0.99;89.46;96858.03;1700508;83;25643;-86
2021/12/10 08:29:45;;;;;;;;;;;;;;;1.04;89.52;96858.59;1702148;83;22006;-86
2021/12/10 08:32:16;;;;;;;;;;;;;;;1.09;89.56;96863.02;1704963;83;27086;-86
2021/12/10 08:34:41;;;;;;;;;;;;;;;1.11;89.57;96861.20;1703618;82;23968;-86
2021/12/10 08:37:07;;;;;;;;;;;;;;;1.12;89.62;96860.75;1686214;83;20410;-86
2021/12/10 08:39:37;;;;;;;;;;;;;;;1.16;89.65;96855.78;1695760;83;20894;-86
2021/12/10 08:42:01;;;;;;;;;;;;;;;1.24;89.67;96860.05;1695092;83;22076;-86
2021/12/10 08:44:27;;;;;;;;;;;;;;;1.27;89.71;96861.14;1693166;83;26121;-86
2021/12/10 08:46:54;;;;;;;;;;;;;;;1.29;89.71;96861.06;1691999;83;24491;-86
2021/12/10 08:49:20;;;;;;;;;;;;;;;1.32;89.72;96866.86;1703118;83;20544;-86
2021/12/10 08:51:48;;;;;;;;;;;;;;;1.36;89.76;96860.63;1703630;83;24952;-86
2021/12/10 08:54:17;;;;;;;;;;;;;;;1.38;89.77;96869.53;1705029;83;22038;-86
2021/12/10 08:56:45;;;;;;;;;;;;;;;1.40;89.76;96866.42;1698566;83;26097;-86
2021/12/10 08:59:13;;;;;;;;;;;;;;;1.45;89.78;96863.11;1704681;83;25271;-86
2021/12/10 09:01:44;;;;;;;;;;;;;;;1.48;89.78;96866.78;1703209;82;20174;-86
2021/12/10 09:04:12;;;;;;;;;;;;;;;1.51;89.77;96868.75;1694433;82;20566;-86
2021/12/10 09:06:41;;;;;;;;;;;;;;;1.57;89.77;96869.67;1698301;83;20162;-86
2021/12/10 09:09:09;;;;;;;;;;;;;;;1.62;89.79;96861.21;1692984;83;26021;-86
2021/12/10 09:11:40;;;;;;;;;;;;;;;1.67;89.81;96861.77;1702662;83;24562;-86
2021/12/10 09:14:07;;;;;;;;;;;;;;;1.70;89.80;96851.70;1703073;83;20317;-86
2021/12/10 09:16:36;;;;;;;;;;;;;;;1.76;89.78;96858.25;1703005;83;25619;-86
2021/12/10 09:19:05;;;;;;;;;;;;;;;1.82;89.79;96852.27;1706757;82;21959;-86
2021/12/10 09:21:32;;;;;;;;;;;;;;;1.83;89.79;96844.91;1697211;83;25964;-86
2021/12/10 09:24:04;;;;;;;;;;;;;;;1.88;89.81;96847.20;1703834;83;24703;-86
2021/12/10 09:26:27;;;;;;;;;;;;;;;1.88;89.79;96842.88;1648484;85;20256;-86
2021/12/10 09:28:54;;;;;;;;;;;;;;;1.92;89.76;96839.64;1611654;87;25029;-86
2021/12/10 09:31:24;;;;;;;;;;;;;;;1.96;89.75;96834.23;1617561;87;22033;-86
2021/12/10 09:33:52;;;;;;;;;;;;;;;2.02;89.74;96827.83;1619686;87;26226;-86
2021/12/10 09:36:18;;;;;;;;;;;;;;;2.09;89.74;96824.80;1626280;86;25174;-86
2021/12/10 09:38:44;;;;;;;;;;;;;;;2.16;89.76;96815.38;1704341;83;20399;-86
2021/12/10 09:41:11;;;;;;;;;;;;;;;2.21;89.75;96821.08;1699318;83;24971;-86
2021/12/10 09:43:39;;;;;;;;;;;;;;;2.26;89.73;96813.42;1700086;83;22008;-86
2021/12/10 09:46:06;;;;;;;;;;;;;;;2.32;89.74;96816.08;1695228;82;26182;-86
2021/12/10 09:48:36;;;;;;;;;;;;;;;2.38;89.71;96810.08;1703144;82;24565;-86
2021/12/10 09:51:03;;;;;;;;;;;;;;;2.44;89.72;96803.23;1703847;83;20288;-86
2021/12/10 09:53:32;;;;;;;;;;;;;;;2.50;89.71;96797.69;1699492;83;25598;-87
2021/12/10 09:56:00;;;;;;;;;;;;;;;2.57;89.72;96792.94;1701117;83;22114;-87
2021/12/10 09:58:26;;;;;;;;;;;;;;;2.63;89.70;96796.42;1703028;83;26071;-86
2021/12/10 10:00:54;;;;;;;;;;;;;;;2.67;89.68;96789.32;1705311;82;24527;-86
2021/12/10 10:03:22;;;;;;;;;;;;;;;2.65;89.64;96792.00;1702414;82;20292;-86
2021/12/10 10:05:48;;;;;;;;;;;;;;;2.61;89.53;96783.26;1703399;83;25038;-86
2021/12/10 10:08:20;;;;;;;;;;;;;;;2.57;89.47;96777.91;1702796;83;22073;-85
2021/12/10 10:10:50;;;;;;;;;;;;;;;2.57;89.41;96775.33;1705167;82;26037;-85
2021/12/10 10:13:17;;;;;;;;;;;;;;;2.61;89.33;96772.47;1694993;83;24553;-85
2021/12/10 10:15:50;;;;;;;;;;;;;;;2.62;89.24;96776.69;1700805;82;20138;-86
2021/12/10 10:18:24;;;;;;;;;;;;;;;2.58;89.14;96776.98;1702044;82;24921;-85
2021/12/10 10:20:49;;;;;;;;;;;;;;;2.48;89.02;96783.21;1702507;83;22103;-86
2021/12/10 10:23:16;;;;;;;;;;;;;;;2.42;88.92;96782.31;1697043;83;26139;-86
2021/12/10 10:25:47;;;;;;;;;;;;;;;2.43;88.79;96784.80;1702504;82;24505;-86
2021/12/10 10:28:12;;;;;;;;;;;;;;;2.45;88.69;96779.55;1703237;83;20551;-86
2021/12/10 10:30:39;;;;;;;;;;;;;;;2.46;88.62;96783.30;1701174;82;25585;-86
2021/12/10 10:33:07;;;;;;;;;;;;;;;2.50;88.57;96779.62;1702447;83;22019;-85
2021/12/10 10:35:35;;;;;;;;;;;;;;;2.56;88.56;96771.94;1701172;83;26176;-85
2021/12/10 10:38:01;;;;;;;;;;;;;;;2.60;88.52;96769.98;1689467;83;24472;-85
2021/12/10 10:40:36;;;;;;;;;;;;;;;2.57;88.50;96767.12;1703306;83;20198;-86
2021/12/10 10:43:04;;;;;;;;;;;;;;;2.62;88.47;96767.64;1702117;83;25048;-86
2021/12/10 10:45:35;;;;;;;;;;;;;;;2.67;88.45;96777.24;1687784;83;22015;-86
2021/12/10 10:48:03;;;;;;;;;;;;;;;2.73;88.42;96774.70;1700897;83;26091;-85
2021/12/10 10:50:34;;;;;;;;;;;;;;;2.82;88.42;96770.24;1692714;82;24561;-85
2021/12/10 10:53:02;;;;;;;;;;;;;;;2.90;88.39;96770.09;1690113;83;20274;-86
2021/12/10 10:55:30;;;;;;;;;;;;;;;2.91;88.36;96771.75;1696671;83;25066;-86
2021/12/10 10:58:05;;;;;;;;;;;;;;;2.85;88.29;96770.86;1698897;83;22039;-86
2021/12/10 11:00:33;;;;;;;;;;;;;;;2.82;88.23;96764.61;1703598;82;26011;-85
2021/12/10 11:03:03;;;;;;;;;;;;;;;2.82;88.16;96760.73;1706023;82;24492;-86
2021/12/10 11:05:32;;;;;;;;;;;;;;;2.78;88.08;96769.59;1699381;83;20258;-85
2021/12/10 11:08:00;;;;;;;;;;;;;;;2.79;88.02;96769.13;1694655;83;25049;-86
2021/12/10 11:10:28;;;;;;;;;;;;;;;2.79;87.97;96764.80;1702084;83;21984;-86
2021/12/10 11:12:56;;;;;;;;;;;;;;;2.75;87.87;96773.68;1683947;83;26049;-86
2021/12/10 11:15:22;;;;;;;;;;;;;;;2.75;87.79;96770.27;1681994;83;24607;-86
2021/12/10 11:17:55;;;;;;;;;;;;;;;2.67;87.68;96775.95;1704028;83;20265;-86
2021/12/10 11:20:28;;;;;;;;;;;;;;;2.65;87.60;96774.38;1704994;83;25578;-86
2021/12/10 11:23:02;;;;;;;;;;;;;;;2.63;87.51;96776.22;1699962;83;21523;-86
2021/12/10 11:25:31;;;;;;;;;;;;;;;2.58;87.44;96789.89;1695567;83;26057;-86
2021/12/10 11:28:08;;;;;;;;;;;;;;;2.57;87.37;96786.48;1692475;82;24652;-86
2021/12/10 11:30:35;;;;;;;;;;;;;;;2.65;87.33;96789.88;1699029;83;20272;-86
2021/12/10 11:33:12;;;;;;;;;;;;;;;2.60;87.25;96794.51;1708785;82;25101;-85
2021/12/10 11:35:43;;;;;;;;;;;;;;;2.59;87.18;96789.80;1698385;82;21968;-85
2021/12/10 11:38:28;;;;;;;;;;;;;;;2.70;87.16;96795.11;1700346;82;26097;-85
2021/12/10 11:40:56;;;;;;;;;;;;;;;2.79;87.15;96791.92;1701086;83;24538;-85
2021/12/10 11:43:44;;;;;;;;;;;;;;;2.76;87.07;96795.17;1647791;85;20231;-85
2021/12/10 11:48:38;;;;;;;;;;;;;;;2.68;86.91;96796.12;1641844;85;22045;-86
2021/12/10 11:51:15;;;;;;;;;;;;;;;2.66;86.81;96794.95;1627038;87;26697;-86
2021/12/10 11:53:40;;;;;;;;;;;;;;;2.69;86.77;96799.07;1666875;84;24495;-86
2021/12/10 11:56:08;;;;;;;;;;;;;;;2.68;86.68;96799.53;1639116;86;20175;-85
2021/12/10 11:58:34;;;;;;;;;;;;;;;2.67;86.63;96797.91;1678620;83;24932;-85
2021/12/10 12:01:00;;;;;;;;;;;;;;;2.74;86.60;96792.68;1707027;83;22931;-85
2021/12/10 12:03:30;;;;;;;;;;;;;;;2.77;86.53;96792.96;1672049;83;21451;-86
2021/12/10 12:05:56;;;;;;;;;;;;;;;2.72;86.47;96784.69;1702944;83;25279;-86
2021/12/10 12:08:24;;;;;;;;;;;;;;;2.71;86.43;96784.31;1704398;83;20254;-85
2021/12/10 12:10:51;;;;;;;;;;;;;;;2.76;86.39;96780.97;1697576;83;25057;-85
2021/12/10 12:15:48;;;;;;;;;;;;;;;2.91;86.35;96779.96;1704468;83;26777;-86
2021/12/10 12:18:25;;;;;;;;;;;;;;;2.89;86.34;96778.76;1697457;83;24548;-86
2021/12/10 12:26:39;;;;;;;;;;;;;;;2.63;86.02;96770.59;1699776;83;22022;-87
2021/12/10 12:29:09;;;;;;;;;;;;;;;2.56;85.89;96769.82;1699145;82;21110;-87
2021/12/10 12:31:40;;;;;;;;;;;;;;;2.53;85.79;96770.37;1681300;83;24552;-86
2021/12/10 12:34:13;;;;;;;;;;;;;;;2.55;85.74;96768.99;1695512;82;20551;-86
2021/12/10 12:36:40;;;;;;;;;;;;;;;2.55;85.66;96768.99;1689366;83;25022;-88
2021/12/10 12:39:08;;;;;;;;;;;;;;;2.52;85.59;96771.75;1697504;83;22104;-87
2021/12/10 12:41:38;;;;;;;;;;;;;;;2.48;85.51;96767.26;1677060;83;26603;-86
2021/12/10 12:44:20;;;;;;;;;;;;;;;2.42;85.42;96771.52;1702368;82;24601;-87
2021/12/10 12:47:00;;;;;;;;;;;;;;;2.40;85.35;96766.91;1701691;83;20496;-87
2021/12/10 12:49:29;;;;;;;;;;;;;;;2.38;85.29;96781.69;1684365;83;21021;-87
2021/12/10 12:52:03;;;;;;;;;;;;;;;2.35;85.25;96769.41;1703245;83;22206;-87
2021/12/10 12:54:29;;;;;;;;;;;;;;;2.36;85.21;96768.03;1700688;83;26312;-88
2021/12/10 12:56:57;;;;;;;;;;;;;;;2.36;85.17;96769.33;1693697;82;24446;-88
2021/12/10 12:59:24;;;;;;;;;;;;;;;2.27;85.13;96764.76;1698606;83;20408;-89
2021/12/10 13:01:52;;;;;;;;;;;;;;;2.27;85.05;96766.51;1704199;83;24967;-89
2021/12/10 13:04:24;;;;;;;;;;;;;;;2.28;85.01;96766.42;1702623;83;22095;-88
2021/12/10 13:06:58;;;;;;;;;;;;;;;2.32;84.99;96761.42;1697326;82;26056;-88
2021/12/10 13:09:31;;;;;;;;;;;;;;;2.35;84.98;96759.92;1701228;83;20535;-89
2021/12/10 13:14:49;;;;;;;;;;;;;;;2.36;84.93;96768.03;1705790;82;25645;-87
2021/12/10 13:17:20;;;;;;;;;;;;;;;2.31;84.89;96763.63;1704057;83;22130;-87
2021/12/10 13:19:46;;;;;;;;;;;;;;;2.25;84.82;96755.45;1698897;83;26011;-87
2021/12/10 13:22:14;;;;;;;;;;;;;;;2.23;84.75;96752.98;1687040;83;24472;-87
2021/12/10 13:24:42;;;;;;;;;;;;;;;2.18;84.68;96754.20;1700794;83;20496;-87